Time;durP1;ratioP1;P1;durP2;ratioP2;P2;SDS_P1;SDS_P2;PMS_P1;PMS_P2;Temp;Humidity;BMP_temperature;BMP_pressure;BME280_temperature;BME280_humidity;BME280_pressure;Samples;Min_cycle;Max_cycle;Signal;HPM_P1;HPM_P2
2022/03/15 00:00:45;;;;;;;16.85;6.75;;;;;;;;;;5097537;28;20051;-40
2022/03/15 00:03:11;;;;;;;25.80;6.85;;;;;;;;;;5095039;28;20043;-41
2022/03/15 00:05:36;;;;;;;15.32;8.40;;;;;;;;;;5092976;28;20047;-44
2022/03/15 00:08:02;;;;;;;9.65;5.95;;;;;;;;;;5093754;28;20040;-40
2022/03/15 00:10:27;;;;;;;13.75;6.32;;;;;;;;;;5095015;28;20039;-41
2022/03/15 00:12:56;;;;;;;22.73;7.82;;;;;;;;;;5094309;28;20043;-41
2022/03/15 00:15:22;;;;;;;19.48;7.13;;;;;;;;;;5096058;28;20048;-40
2022/03/15 00:17:48;;;;;;;28.58;8.30;;;;;;;;;;5095285;28;20142;-41
2022/03/15 00:20:18;;;;;;;15.07;6.72;;;;;;;;;;5097239;28;20051;-42
2022/03/15 00:22:44;;;;;;;14.85;5.88;;;;;;;;;;5097432;28;20050;-40
2022/03/15 00:25:11;;;;;;;17.13;7.75;;;;;;;;;;5095223;28;20040;-41
2022/03/15 00:27:37;;;;;;;24.33;6.70;;;;;;;;;;5095322;28;20075;-40
2022/03/15 00:30:05;;;;;;;20.67;7.60;;;;;;;;;;5093353;28;20133;-42
2022/03/15 00:32:31;;;;;;;16.92;8.02;;;;;;;;;;5092934;28;20419;-41
2022/03/15 00:34:56;;;;;;;19.42;8.35;;;;;;;;;;5092653;28;20118;-40
2022/03/15 00:37:21;;;;;;;24.67;7.50;;;;;;;;;;5094591;28;20435;-43
2022/03/15 00:39:46;;;;;;;12.45;8.00;;;;;;;;;;5095424;28;20044;-41
2022/03/15 00:42:12;;;;;;;26.80;8.20;;;;;;;;;;5096180;28;20123;-41
2022/03/15 00:44:38;;;;;;;37.35;9.52;;;;;;;;;;5100076;28;20048;-41
2022/03/15 00:47:04;;;;;;;17.60;9.15;;;;;;;;;;5098889;28;20047;-43
2022/03/15 00:49:29;;;;;;;21.67;7.45;;;;;;;;;;5094557;28;20425;-42
2022/03/15 00:51:54;;;;;;;19.63;7.63;;;;;;;;;;5097503;28;20086;-42
2022/03/15 00:54:23;;;;;;;19.02;7.38;;;;;;;;;;5096628;28;20054;-40
2022/03/15 00:56:49;;;;;;;20.02;7.60;;;;;;;;;;5096173;28;20051;-42
2022/03/15 00:59:15;;;;;;;12.98;6.10;;;;;;;;;;5098683;28;20059;-42
2022/03/15 01:01:40;;;;;;;13.70;7.00;;;;;;;;;;5098134;28;20466;-42
2022/03/15 01:04:06;;;;;;;12.05;6.53;;;;;;;;;;5096217;28;20055;-41
2022/03/15 01:06:31;;;;;;;23.73;8.80;;;;;;;;;;5095635;28;20119;-40
2022/03/15 01:08:56;;;;;;;22.52;6.70;;;;;;;;;;5097439;28;20048;-40
2022/03/15 01:11:22;;;;;;;18.33;7.18;;;;;;;;;;5095802;28;20426;-39
2022/03/15 01:13:47;;;;;;;13.73;6.97;;;;;;;;;;5095057;28;20056;-40
2022/03/15 01:16:13;;;;;;;9.88;5.22;;;;;;;;;;5099227;28;20066;-42
2022/03/15 01:18:38;;;;;;;29.00;7.25;;;;;;;;;;5094515;28;20083;-41
2022/03/15 01:21:04;;;;;;;22.15;6.72;;;;;;;;;;5095719;28;20104;-41
2022/03/15 01:23:30;;;;;;;26.85;5.38;;;;;;;;;;5102897;28;20039;-41
2022/03/15 01:25:56;;;;;;;8.95;5.75;;;;;;;;;;5096546;28;20455;-40
2022/03/15 01:28:22;;;;;;;10.00;3.88;;;;;;;;;;5098787;28;20048;-41
2022/03/15 01:30:47;;;;;;;21.23;7.70;;;;;;;;;;5097387;28;20553;-41
2022/03/15 01:33:13;;;;;;;15.07;6.15;;;;;;;;;;5102366;28;20075;-42
2022/03/15 01:35:38;;;;;;;15.32;5.85;;;;;;;;;;5097490;27;20055;-41
2022/03/15 01:38:03;;;;;;;20.50;6.05;;;;;;;;;;5097394;28;20036;-42
2022/03/15 01:40:29;;;;;;;16.73;5.43;;;;;;;;;;5097810;28;20068;-44
2022/03/15 01:42:54;;;;;;;13.23;4.55;;;;;;;;;;5095960;28;20043;-43
2022/03/15 01:45:19;;;;;;;22.33;6.75;;;;;;;;;;5096576;28;20553;-41
2022/03/15 01:47:46;;;;;;;21.25;6.60;;;;;;;;;;5097309;28;20139;-41
2022/03/15 01:50:11;;;;;;;10.70;5.78;;;;;;;;;;5096544;28;20054;-42
2022/03/15 01:52:36;;;;;;;8.85;4.78;;;;;;;;;;5095442;28;20052;-41
2022/03/15 01:55:03;;;;;;;18.40;6.97;;;;;;;;;;5098294;28;20100;-45
2022/03/15 01:57:28;;;;;;;17.38;6.07;;;;;;;;;;5096033;28;20488;-43
2022/03/15 01:59:54;;;;;;;13.30;4.75;;;;;;;;;;5097392;28;20043;-45
2022/03/15 02:02:19;;;;;;;11.50;6.18;;;;;;;;;;5097034;28;20044;-41
2022/03/15 02:04:44;;;;;;;32.22;6.05;;;;;;;;;;5092960;28;20048;-45
2022/03/15 02:07:11;;;;;;;13.52;5.72;;;;;;;;;;5091837;28;20047;-41
2022/03/15 02:09:36;;;;;;;9.65;5.53;;;;;;;;;;5096756;28;20051;-46
2022/03/15 02:12:02;;;;;;;29.95;7.22;;;;;;;;;;5095627;28;20054;-45
2022/03/15 02:14:28;;;;;;;20.42;6.50;;;;;;;;;;5094065;28;20079;-46
2022/03/15 02:16:53;;;;;;;20.48;8.63;;;;;;;;;;5093478;28;20111;-43
2022/03/15 02:19:19;;;;;;;12.57;5.57;;;;;;;;;;5096723;28;20396;-46
2022/03/15 02:21:44;;;;;;;21.20;6.70;;;;;;;;;;5095369;28;20051;-46
2022/03/15 02:24:09;;;;;;;18.00;6.15;;;;;;;;;;5096965;27;20039;-41
2022/03/15 02:26:35;;;;;;;39.83;8.27;;;;;;;;;;5096644;28;20054;-47
2022/03/15 02:29:00;;;;;;;22.58;9.55;;;;;;;;;;5095123;28;20086;-40
2022/03/15 02:31:25;;;;;;;21.95;8.27;;;;;;;;;;5095386;28;20055;-42
2022/03/15 02:33:51;;;;;;;26.92;7.78;;;;;;;;;;5096632;28;20051;-40
2022/03/15 02:36:17;;;;;;;33.47;8.82;;;;;;;;;;5092938;28;20044;-40
2022/03/15 02:38:42;;;;;;;35.78;7.95;;;;;;;;;;5095407;28;20557;-41
2022/03/15 02:41:08;;;;;;;30.95;8.52;;;;;;;;;;5096562;28;20689;-41
2022/03/15 02:43:33;;;;;;;36.50;7.95;;;;;;;;;;5099027;28;20083;-45
2022/03/15 02:45:58;;;;;;;12.52;5.60;;;;;;;;;;5097514;28;20059;-40
2022/03/15 02:48:24;;;;;;;35.70;9.73;;;;;;;;;;5096536;28;20064;-40
2022/03/15 02:50:49;;;;;;;25.17;7.72;;;;;;;;;;5095329;28;20052;-39
2022/03/15 02:53:16;;;;;;;36.40;9.05;;;;;;;;;;5097018;28;20442;-45
2022/03/15 02:55:42;;;;;;;25.02;7.82;;;;;;;;;;5095493;28;20489;-41
2022/03/15 02:58:07;;;;;;;22.05;8.00;;;;;;;;;;5098353;28;20147;-42
2022/03/15 03:00:34;;;;;;;43.63;8.68;;;;;;;;;;5094550;28;20048;-40
2022/03/15 03:02:59;;;;;;;30.95;7.93;;;;;;;;;;5096030;28;20090;-41
2022/03/15 03:05:24;;;;;;;44.45;7.35;;;;;;;;;;5093161;28;20498;-43
2022/03/15 03:07:50;;;;;;;21.67;8.05;;;;;;;;;;5095649;28;20618;-45
2022/03/15 03:10:16;;;;;;;21.00;7.43;;;;;;;;;;5092037;28;20051;-41
2022/03/15 03:12:46;;;;;;;24.80;7.88;;;;;;;;;;5095399;28;20051;-41
2022/03/15 03:15:12;;;;;;;24.38;7.50;;;;;;;;;;5095331;28;20056;-40
2022/03/15 03:17:41;;;;;;;34.17;8.80;;;;;;;;;;5093501;28;20074;-41
2022/03/15 03:20:09;;;;;;;22.58;8.73;;;;;;;;;;5093351;28;20601;-39
2022/03/15 03:22:36;;;;;;;19.40;5.80;;;;;;;;;;5093295;28;20425;-40
2022/03/15 03:25:01;;;;;;;33.95;8.73;;;;;;;;;;5094327;28;20056;-41
2022/03/15 03:27:26;;;;;;;16.90;8.40;;;;;;;;;;5093867;28;20728;-41
2022/03/15 03:29:52;;;;;;;29.08;6.70;;;;;;;;;;5096923;28;20043;-43
2022/03/15 03:32:17;;;;;;;41.03;8.32;;;;;;;;;;5093100;28;20051;-45
2022/03/15 03:34:43;;;;;;;33.38;7.13;;;;;;;;;;5095529;28;20130;-43
2022/03/15 03:37:08;;;;;;;44.88;10.73;;;;;;;;;;5093333;28;20801;-43
2022/03/15 03:39:33;;;;;;;40.65;9.80;;;;;;;;;;5095564;28;20491;-41
2022/03/15 03:41:59;;;;;;;17.08;7.20;;;;;;;;;;5093593;28;20071;-42
2022/03/15 03:44:24;;;;;;;37.83;9.45;;;;;;;;;;5097304;28;20043;-42
2022/03/15 03:46:50;;;;;;;38.92;6.88;;;;;;;;;;5095377;28;20054;-40
2022/03/15 03:49:15;;;;;;;47.55;11.05;;;;;;;;;;5092237;28;20055;-40
2022/03/15 03:51:41;;;;;;;46.45;9.48;;;;;;;;;;5095957;28;20438;-39
2022/03/15 03:54:06;;;;;;;69.97;11.00;;;;;;;;;;5094288;28;20131;-40
2022/03/15 03:56:33;;;;;;;19.02;6.25;;;;;;;;;;5095059;28;20058;-42
2022/03/15 03:58:59;;;;;;;33.28;10.13;;;;;;;;;;5095909;28;20044;-41
2022/03/15 04:01:24;;;;;;;30.42;8.48;;;;;;;;;;5093437;28;20051;-43
2022/03/15 04:03:49;;;;;;;37.40;10.93;;;;;;;;;;5094656;28;20109;-39
2022/03/15 04:06:15;;;;;;;63.42;9.75;;;;;;;;;;5097193;28;20044;-42
2022/03/15 04:08:42;;;;;;;36.47;8.85;;;;;;;;;;5095606;28;20087;-40
2022/03/15 04:11:09;;;;;;;37.00;9.15;;;;;;;;;;5092356;28;20050;-42
2022/03/15 04:13:35;;;;;;;39.90;9.90;;;;;;;;;;5092916;28;20570;-42
2022/03/15 04:16:00;;;;;;;47.65;9.43;;;;;;;;;;5090879;28;20070;-40
2022/03/15 04:18:26;;;;;;;49.50;12.68;;;;;;;;;;5094617;28;20126;-41
2022/03/15 04:20:52;;;;;;;40.58;8.25;;;;;;;;;;5091927;28;20106;-40
2022/03/15 04:23:17;;;;;;;28.13;8.45;;;;;;;;;;5096050;28;20122;-42
2022/03/15 04:25:42;;;;;;;28.00;7.60;;;;;;;;;;5094180;28;20040;-40
2022/03/15 04:28:08;;;;;;;44.22;10.95;;;;;;;;;;5094373;28;20051;-44
2022/03/15 04:30:33;;;;;;;29.15;7.10;;;;;;;;;;5094593;28;20043;-42
2022/03/15 04:33:01;;;;;;;26.73;6.78;;;;;;;;;;5096255;28;20568;-40
2022/03/15 04:35:27;;;;;;;32.38;8.55;;;;;;;;;;5096712;28;20574;-40
2022/03/15 04:37:53;;;;;;;38.58;8.57;;;;;;;;;;5094482;28;20052;-40
2022/03/15 04:40:19;;;;;;;18.55;6.50;;;;;;;;;;5094783;28;20507;-40
2022/03/15 04:42:45;;;;;;;17.58;7.40;;;;;;;;;;5093723;28;20043;-43
2022/03/15 04:45:11;;;;;;;38.58;7.88;;;;;;;;;;5092913;28;20035;-42
2022/03/15 04:47:36;;;;;;;29.77;7.85;;;;;;;;;;5093316;28;20055;-39
2022/03/15 04:50:02;;;;;;;47.70;9.20;;;;;;;;;;5094180;28;20540;-39
2022/03/15 04:52:28;;;;;;;37.13;9.60;;;;;;;;;;5095436;28;21086;-43
2022/03/15 04:54:53;;;;;;;41.90;7.63;;;;;;;;;;5093245;28;20054;-41
2022/03/15 04:57:18;;;;;;;33.63;8.50;;;;;;;;;;5092767;28;20052;-43
2022/03/15 04:59:44;;;;;;;32.25;8.88;;;;;;;;;;5097730;28;20050;-42
2022/03/15 05:02:09;;;;;;;20.95;8.77;;;;;;;;;;5095530;28;20122;-42
2022/03/15 05:04:34;;;;;;;36.03;10.02;;;;;;;;;;5093395;28;20482;-40
2022/03/15 05:07:00;;;;;;;36.80;9.30;;;;;;;;;;5092822;28;20059;-43
2022/03/15 05:09:25;;;;;;;28.25;8.85;;;;;;;;;;5090148;28;20522;-41
2022/03/15 05:11:50;;;;;;;39.40;8.63;;;;;;;;;;5094555;28;20420;-41
2022/03/15 05:14:16;;;;;;;46.08;9.35;;;;;;;;;;5094865;28;20949;-42
2022/03/15 05:16:41;;;;;;;42.38;9.82;;;;;;;;;;5092975;28;20052;-40
2022/03/15 05:19:07;;;;;;;30.63;7.88;;;;;;;;;;5094302;28;20032;-42
2022/03/15 05:21:32;;;;;;;30.80;7.38;;;;;;;;;;5094935;28;20123;-43
2022/03/15 05:23:57;;;;;;;51.70;9.50;;;;;;;;;;5098094;28;20068;-40
2022/03/15 05:26:23;;;;;;;35.47;11.02;;;;;;;;;;5098574;28;20043;-40
2022/03/15 05:28:50;;;;;;;37.08;10.25;;;;;;;;;;5100396;28;20498;-41
2022/03/15 05:31:16;;;;;;;45.25;9.18;;;;;;;;;;5098942;28;20139;-44
2022/03/15 05:33:41;;;;;;;44.58;9.00;;;;;;;;;;5100435;28;20467;-40
2022/03/15 05:36:07;;;;;;;47.20;11.48;;;;;;;;;;5098446;28;20148;-41
2022/03/15 05:38:32;;;;;;;46.72;8.73;;;;;;;;;;5096564;28;20048;-42
2022/03/15 05:40:57;;;;;;;35.17;9.48;;;;;;;;;;5095183;28;20082;-43
2022/03/15 05:43:23;;;;;;;27.98;9.25;;;;;;;;;;5100451;28;20138;-42
2022/03/15 05:45:49;;;;;;;24.30;7.60;;;;;;;;;;5102090;28;20071;-43
2022/03/15 05:48:14;;;;;;;23.77;9.98;;;;;;;;;;5099256;28;20419;-41
2022/03/15 05:50:40;;;;;;;33.38;10.02;;;;;;;;;;5099398;28;20054;-41
2022/03/15 05:53:05;;;;;;;39.40;8.85;;;;;;;;;;5098954;28;20518;-43
2022/03/15 05:55:31;;;;;;;30.88;9.88;;;;;;;;;;5098285;28;20044;-40
2022/03/15 05:57:57;;;;;;;22.88;7.20;;;;;;;;;;5099064;28;20048;-43
2022/03/15 06:00:22;;;;;;;25.38;7.65;;;;;;;;;;5099483;28;20120;-40
2022/03/15 06:02:47;;;;;;;35.67;8.85;;;;;;;;;;5098033;28;20059;-41
2022/03/15 06:05:13;;;;;;;23.67;8.30;;;;;;;;;;5098338;28;20087;-42
2022/03/15 06:07:48;;;;;;;21.52;8.73;;;;;;;;;;5099610;28;20130;-41
2022/03/15 06:10:15;;;;;;;26.85;7.90;;;;;;;;;;5099628;28;20082;-40
2022/03/15 06:12:41;;;;;;;26.67;6.13;;;;;;;;;;5098663;28;20040;-42
2022/03/15 06:15:06;;;;;;;20.65;6.88;;;;;;;;;;5099863;28;20058;-42
2022/03/15 06:17:32;;;;;;;14.75;5.57;;;;;;;;;;5099379;28;20359;-43
2022/03/15 06:19:58;;;;;;;30.02;8.23;;;;;;;;;;5096948;28;20081;-43
2022/03/15 06:22:23;;;;;;;25.38;6.65;;;;;;;;;;5097097;28;20044;-43
2022/03/15 06:24:48;;;;;;;33.70;7.05;;;;;;;;;;5099162;28;20479;-41
2022/03/15 06:27:13;;;;;;;16.63;6.50;;;;;;;;;;5098089;28;20043;-43
2022/03/15 06:29:39;;;;;;;26.30;6.80;;;;;;;;;;5098290;28;20126;-44
2022/03/15 06:32:04;;;;;;;14.05;5.95;;;;;;;;;;5096389;28;20036;-42
2022/03/15 06:34:29;;;;;;;12.27;6.97;;;;;;;;;;5096528;28;20044;-43
2022/03/15 06:36:55;;;;;;;43.88;7.80;;;;;;;;;;5097737;28;20047;-42
2022/03/15 06:39:20;;;;;;;51.83;8.18;;;;;;;;;;5098927;28;20547;-43
2022/03/15 06:41:46;;;;;;;26.27;7.30;;;;;;;;;;5098051;28;20575;-45
2022/03/15 06:44:11;;;;;;;26.98;7.88;;;;;;;;;;5096155;28;20059;-44
2022/03/15 06:46:37;;;;;;;37.92;7.32;;;;;;;;;;5096941;28;20458;-41
2022/03/15 06:49:04;;;;;;;22.45;6.60;;;;;;;;;;5097281;28;20048;-45
2022/03/15 06:51:29;;;;;;;21.23;7.38;;;;;;;;;;5101797;28;20549;-43
2022/03/15 06:53:55;;;;;;;19.60;7.35;;;;;;;;;;5095523;28;20099;-44
2022/03/15 06:56:20;;;;;;;28.00;7.85;;;;;;;;;;5099659;28;20040;-42
2022/03/15 06:58:46;;;;;;;26.88;7.35;;;;;;;;;;5099645;28;20063;-44
2022/03/15 07:01:11;;;;;;;17.17;4.45;;;;;;;;;;5096764;28;20223;-43
2022/03/15 07:03:37;;;;;;;8.13;3.53;;;;;;;;;;5097248;28;20039;-46
2022/03/15 07:06:02;;;;;;;27.33;5.80;;;;;;;;;;5095800;28;20093;-45
2022/03/15 07:08:28;;;;;;;18.00;4.85;;;;;;;;;;5099563;28;20131;-44
2022/03/15 07:10:53;;;;;;;19.63;5.53;;;;;;;;;;5097542;28;20079;-48
2022/03/15 07:13:19;;;;;;;19.13;4.88;;;;;;;;;;5097854;28;20159;-44
2022/03/15 07:15:44;;;;;;;22.23;6.20;;;;;;;;;;5097218;28;20074;-42
2022/03/15 07:18:09;;;;;;;20.67;6.70;;;;;;;;;;5096318;28;20044;-44
2022/03/15 07:20:35;;;;;;;25.08;7.63;;;;;;;;;;5093883;28;20166;-45
2022/03/15 07:23:00;;;;;;;20.73;5.75;;;;;;;;;;5095573;28;22260;-47
2022/03/15 07:25:26;;;;;;;26.13;7.32;;;;;;;;;;5097060;28;20063;-48
2022/03/15 07:27:51;;;;;;;31.25;8.15;;;;;;;;;;5094996;28;20552;-46
2022/03/15 07:30:16;;;;;;;16.98;7.70;;;;;;;;;;5095597;28;20043;-46
2022/03/15 07:32:42;;;;;;;37.38;8.60;;;;;;;;;;5097696;28;20055;-46
2022/03/15 07:35:08;;;;;;;16.05;6.82;;;;;;;;;;5098029;28;20138;-45
2022/03/15 07:37:33;;;;;;;22.63;7.63;;;;;;;;;;5099459;28;20039;-42
2022/03/15 07:39:59;;;;;;;17.80;5.47;;;;;;;;;;5099763;28;20059;-44
2022/03/15 07:42:25;;;;;;;19.05;8.23;;;;;;;;;;5089242;28;20040;-45
2022/03/15 07:44:50;;;;;;;13.30;4.70;;;;;;;;;;5094638;28;20043;-45
2022/03/15 07:47:16;;;;;;;17.55;7.03;;;;;;;;;;5092352;28;20043;-47
2022/03/15 07:49:42;;;;;;;21.15;6.68;;;;;;;;;;5097391;28;20050;-46
2022/03/15 07:52:07;;;;;;;26.98;6.55;;;;;;;;;;5097107;28;20040;-43
2022/03/15 07:54:34;;;;;;;16.23;6.10;;;;;;;;;;5099585;28;20039;-42
2022/03/15 07:56:59;;;;;;;51.35;9.73;;;;;;;;;;5094137;28;20078;-46
2022/03/15 07:59:24;;;;;;;14.35;5.53;;;;;;;;;;5096944;28;20074;-43
2022/03/15 08:01:50;;;;;;;29.25;8.65;;;;;;;;;;5095168;28;20706;-42
2022/03/15 08:04:16;;;;;;;20.45;5.47;;;;;;;;;;5094801;28;20189;-46
2022/03/15 08:06:41;;;;;;;19.08;6.68;;;;;;;;;;5094973;28;20040;-41
2022/03/15 08:09:06;;;;;;;17.27;5.30;;;;;;;;;;5095527;28;20051;-42
2022/03/15 08:11:32;;;;;;;25.65;5.38;;;;;;;;;;5094994;28;20040;-42
2022/03/15 08:13:58;;;;;;;15.50;5.35;;;;;;;;;;5092864;28;21105;-42
2022/03/15 08:16:24;;;;;;;17.02;5.75;;;;;;;;;;5094649;28;20065;-40
2022/03/15 08:18:50;;;;;;;13.00;5.65;;;;;;;;;;5095096;28;20092;-43
2022/03/15 08:21:16;;;;;;;9.25;5.03;;;;;;;;;;5096012;28;20079;-42
2022/03/15 08:23:43;;;;;;;17.15;3.45;;;;;;;;;;5098381;28;20074;-41
2022/03/15 08:26:08;;;;;;;24.67;5.65;;;;;;;;;;5096247;28;20503;-42
2022/03/15 08:28:34;;;;;;;7.30;4.18;;;;;;;;;;5096434;28;20643;-42
2022/03/15 08:31:00;;;;;;;22.55;6.55;;;;;;;;;;5096297;28;20076;-42
2022/03/15 08:33:25;;;;;;;17.83;6.88;;;;;;;;;;5096419;28;20082;-41
2022/03/15 08:35:51;;;;;;;12.80;5.38;;;;;;;;;;5099689;28;20053;-40
2022/03/15 08:38:16;;;;;;;29.50;6.45;;;;;;;;;;5096300;28;20083;-42
2022/03/15 08:40:42;;;;;;;8.43;3.70;;;;;;;;;;5096799;28;20036;-42
2022/03/15 08:43:07;;;;;;;8.65;2.42;;;;;;;;;;5098531;28;20496;-42
2022/03/15 08:45:33;;;;;;;18.10;6.07;;;;;;;;;;5095186;28;20070;-42
2022/03/15 08:47:58;;;;;;;13.60;5.38;;;;;;;;;;5091788;28;20524;-44
2022/03/15 08:50:23;;;;;;;14.95;3.85;;;;;;;;;;5096692;28;20071;-43
2022/03/15 08:52:49;;;;;;;17.77;4.97;;;;;;;;;;5097547;28;20518;-42
2022/03/15 08:55:14;;;;;;;12.00;6.80;;;;;;;;;;5097594;28;20039;-42
2022/03/15 08:57:40;;;;;;;11.00;3.42;;;;;;;;;;5097896;28;20066;-42
2022/03/15 09:00:07;;;;;;;14.60;7.18;;;;;;;;;;5099285;28;20086;-43
2022/03/15 09:02:32;;;;;;;24.40;5.63;;;;;;;;;;5098866;28;20052;-41
2022/03/15 09:04:57;;;;;;;36.15;7.70;;;;;;;;;;5099161;28;20047;-45
2022/03/15 09:07:23;;;;;;;23.48;8.73;;;;;;;;;;5101651;28;20051;-42
2022/03/15 09:09:48;;;;;;;14.07;7.10;;;;;;;;;;5100854;28;20048;-43
2022/03/15 09:12:13;;;;;;;17.90;8.88;;;;;;;;;;5100453;28;20039;-41
2022/03/15 09:14:39;;;;;;;13.73;5.07;;;;;;;;;;5100401;28;20059;-41
2022/03/15 09:17:05;;;;;;;21.48;6.85;;;;;;;;;;5100220;28;20399;-41
2022/03/15 09:19:31;;;;;;;14.00;5.40;;;;;;;;;;5098959;28;20051;-43
2022/03/15 09:21:57;;;;;;;30.63;10.07;;;;;;;;;;5099939;28;20044;-45
2022/03/15 09:24:22;;;;;;;30.25;7.10;;;;;;;;;;5099886;28;20043;-42
2022/03/15 09:26:47;;;;;;;13.65;4.35;;;;;;;;;;5097259;28;20044;-41
2022/03/15 09:29:13;;;;;;;26.92;7.93;;;;;;;;;;5100102;28;20039;-42
2022/03/15 09:31:38;;;;;;;13.40;4.13;;;;;;;;;;5097574;28;20044;-40
2022/03/15 09:34:04;;;;;;;16.05;3.85;;;;;;;;;;5099490;28;20153;-41
2022/03/15 09:36:29;;;;;;;31.50;6.72;;;;;;;;;;5098169;28;20635;-40
2022/03/15 09:38:55;;;;;;;10.23;4.50;;;;;;;;;;5098057;28;20048;-40
2022/03/15 09:41:23;;;;;;;27.75;7.50;;;;;;;;;;5098068;28;20128;-41
2022/03/15 09:43:50;;;;;;;15.05;4.70;;;;;;;;;;5097124;28;20549;-42
2022/03/15 09:46:17;;;;;;;9.43;5.15;;;;;;;;;;5097787;28;20059;-41
2022/03/15 09:48:42;;;;;;;21.05;7.25;;;;;;;;;;5097094;28;20062;-41
2022/03/15 09:51:11;;;;;;;12.88;5.53;;;;;;;;;;5100524;28;20044;-41
2022/03/15 09:53:37;;;;;;;17.25;6.20;;;;;;;;;;5098792;28;20069;-42
2022/03/15 09:56:03;;;;;;;34.83;8.77;;;;;;;;;;5099154;28;20074;-44
2022/03/15 09:58:28;;;;;;;40.78;8.98;;;;;;;;;;5099884;28;20051;-44
2022/03/15 10:00:54;;;;;;;17.70;4.68;;;;;;;;;;5098652;28;20063;-39
2022/03/15 10:03:20;;;;;;;22.67;7.95;;;;;;;;;;5094548;28;20131;-41
2022/03/15 10:05:45;;;;;;;10.23;4.78;;;;;;;;;;5098110;28;20228;-43
2022/03/15 10:08:12;;;;;;;9.07;4.43;;;;;;;;;;5093859;28;20466;-45
2022/03/15 10:10:37;;;;;;;12.75;5.85;;;;;;;;;;5097187;28;20043;-43
2022/03/15 10:13:02;;;;;;;14.50;4.53;;;;;;;;;;5096127;28;20395;-41
2022/03/15 10:15:28;;;;;;;23.90;9.80;;;;;;;;;;5092958;28;20071;-42
2022/03/15 10:17:55;;;;;;;19.70;8.20;;;;;;;;;;5096476;28;20052;-41
2022/03/15 10:20:25;;;;;;;25.17;16.30;;;;;;;;;;5096071;28;20540;-51
2022/03/15 10:22:55;;;;;;;35.03;8.73;;;;;;;;;;5097657;28;20047;-51
2022/03/15 10:25:24;;;;;;;23.60;6.60;;;;;;;;;;5095841;28;20439;-50
2022/03/15 10:27:54;;;;;;;7.00;5.07;;;;;;;;;;5093876;28;20236;-54
2022/03/15 10:30:19;;;;;;;24.55;8.57;;;;;;;;;;5096024;28;20051;-53
2022/03/15 10:32:45;;;;;;;9.93;4.30;;;;;;;;;;5093838;28;20052;-52
2022/03/15 10:35:12;;;;;;;26.33;5.95;;;;;;;;;;5092376;28;20048;-49
2022/03/15 10:37:40;;;;;;;23.48;7.72;;;;;;;;;;5095334;28;20082;-48
2022/03/15 10:40:05;;;;;;;43.58;7.38;;;;;;;;;;5097708;28;20044;-51
2022/03/15 10:42:31;;;;;;;23.58;7.60;;;;;;;;;;5094767;28;20044;-54
2022/03/15 10:44:58;;;;;;;23.05;6.63;;;;;;;;;;5095145;28;20043;-53
2022/03/15 10:47:23;;;;;;;10.20;5.72;;;;;;;;;;5095392;28;20218;-53
2022/03/15 10:49:50;;;;;;;23.02;8.57;;;;;;;;;;5095565;28;20147;-52
2022/03/15 10:52:27;;;;;;;16.27;4.63;;;;;;;;;;5096719;28;20067;-52
2022/03/15 10:54:52;;;;;;;18.45;5.35;;;;;;;;;;5092797;28;20055;-52
2022/03/15 10:57:18;;;;;;;22.67;7.68;;;;;;;;;;5095852;28;20052;-53
2022/03/15 10:59:43;;;;;;;26.45;8.55;;;;;;;;;;5096387;28;20148;-55
2022/03/15 11:02:10;;;;;;;8.82;5.97;;;;;;;;;;5092951;28;20075;-55
2022/03/15 11:04:44;;;;;;;7.97;4.63;;;;;;;;;;5097016;28;20081;-52
2022/03/15 11:07:09;;;;;;;26.98;7.18;;;;;;;;;;5094535;28;20166;-53
2022/03/15 11:09:36;;;;;;;20.45;5.78;;;;;;;;;;5095978;28;20056;-51
2022/03/15 11:12:06;;;;;;;14.07;7.65;;;;;;;;;;5096643;28;20087;-53
2022/03/15 11:14:41;;;;;;;17.75;5.82;;;;;;;;;;5095239;28;20078;-52
2022/03/15 11:17:16;;;;;;;18.10;5.22;;;;;;;;;;5097480;28;20317;-52
2022/03/15 11:19:46;;;;;;;21.05;6.90;;;;;;;;;;5096284;28;20728;-49
2022/03/15 11:22:16;;;;;;;18.50;5.40;;;;;;;;;;5097783;28;20105;-50
2022/03/15 11:24:43;;;;;;;22.80;9.02;;;;;;;;;;5098158;28;20028;-53
2022/03/15 11:27:11;;;;;;;11.57;5.88;;;;;;;;;;5099355;28;20083;-54
2022/03/15 11:29:38;;;;;;;18.33;6.95;;;;;;;;;;5098178;28;20075;-53
2022/03/15 11:32:03;;;;;;;20.67;7.55;;;;;;;;;;5098449;28;20144;-53
2022/03/15 11:34:29;;;;;;;15.73;7.00;;;;;;;;;;5099055;28;20097;-53
2022/03/15 11:36:56;;;;;;;20.88;7.47;;;;;;;;;;5096496;28;20130;-50
2022/03/15 11:39:22;;;;;;;24.33;7.45;;;;;;;;;;5098402;28;20514;-51
2022/03/15 11:41:47;;;;;;;14.52;7.93;;;;;;;;;;5098315;28;20173;-53
2022/03/15 11:44:34;;;;;;;25.60;10.32;;;;;;;;;;5097382;28;20135;-53
2022/03/15 11:47:05;;;;;;;22.85;8.07;;;;;;;;;;5095095;28;20176;-53
2022/03/15 11:49:33;;;;;;;27.58;8.70;;;;;;;;;;5091655;28;20044;-52
2022/03/15 11:52:17;;;;;;;25.20;7.78;;;;;;;;;;5095193;28;20098;-56
2022/03/15 11:55:05;;;;;;;15.48;6.65;;;;;;;;;;5095613;28;20074;-54
2022/03/15 11:57:34;;;;;;;17.92;4.90;;;;;;;;;;5094420;28;20135;-53
2022/03/15 12:00:00;;;;;;;11.45;3.47;;;;;;;;;;5097434;28;20047;-54
2022/03/15 12:02:27;;;;;;;13.75;4.65;;;;;;;;;;5097762;27;20526;-54
2022/03/15 12:04:52;;;;;;;33.90;8.15;;;;;;;;;;5095389;28;20047;-55
2022/03/15 12:07:29;;;;;;;15.25;7.35;;;;;;;;;;5094096;28;20039;-52
2022/03/15 12:09:57;;;;;;;15.02;5.82;;;;;;;;;;5097292;28;20118;-53
2022/03/15 12:12:29;;;;;;;18.33;7.60;;;;;;;;;;5098748;28;20103;-55
2022/03/15 12:14:54;;;;;;;23.65;6.35;;;;;;;;;;5096571;28;20047;-50
2022/03/15 12:17:20;;;;;;;33.67;8.38;;;;;;;;;;5096446;28;20078;-52
2022/03/15 12:19:49;;;;;;;16.48;5.20;;;;;;;;;;5097886;28;20043;-51
2022/03/15 12:22:25;;;;;;;28.55;6.47;;;;;;;;;;5098071;28;20040;-50
2022/03/15 12:25:20;;;;;;;20.95;4.85;;;;;;;;;;5099763;28;20494;-52
2022/03/15 12:27:49;;;;;;;26.70;8.73;;;;;;;;;;5087105;28;20120;-53
2022/03/15 12:30:28;;;;;;;20.48;6.20;;;;;;;;;;5094182;28;20403;-51
2022/03/15 12:32:54;;;;;;;15.38;6.65;;;;;;;;;;5098374;28;20055;-51
2022/03/15 12:35:25;;;;;;;29.50;6.88;;;;;;;;;;5102076;28;20412;-51
2022/03/15 12:37:50;;;;;;;10.68;4.88;;;;;;;;;;5100276;28;20100;-52
2022/03/15 12:40:16;;;;;;;33.40;7.30;;;;;;;;;;5098140;28;20051;-52
2022/03/15 12:42:53;;;;;;;15.75;5.45;;;;;;;;;;5098381;28;20042;-54
2022/03/15 12:45:19;;;;;;;16.02;5.47;;;;;;;;;;5096305;28;20123;-54
2022/03/15 12:47:48;;;;;;;17.70;5.45;;;;;;;;;;5098827;28;20698;-53
2022/03/15 12:50:14;;;;;;;14.70;4.90;;;;;;;;;;5098867;28;20038;-51
2022/03/15 12:52:40;;;;;;;26.52;5.10;;;;;;;;;;5100081;28;20039;-53
2022/03/15 12:55:06;;;;;;;19.17;6.45;;;;;;;;;;5097403;28;20116;-53
2022/03/15 12:57:33;;;;;;;17.90;7.68;;;;;;;;;;5099277;28;20051;-53
2022/03/15 12:59:58;;;;;;;19.67;7.72;;;;;;;;;;5095707;28;20487;-53
2022/03/15 13:02:24;;;;;;;20.55;6.40;;;;;;;;;;5099499;28;20150;-54
2022/03/15 13:04:49;;;;;;;25.20;9.80;;;;;;;;;;5099127;28;20097;-51
2022/03/15 13:07:15;;;;;;;33.33;8.15;;;;;;;;;;5097294;28;20361;-51
2022/03/15 13:09:41;;;;;;;20.45;6.85;;;;;;;;;;5102186;28;20048;-50
2022/03/15 13:12:15;;;;;;;25.58;8.07;;;;;;;;;;5098024;28;20067;-52
2022/03/15 13:14:42;;;;;;;20.52;9.02;;;;;;;;;;5101288;28;20479;-52
2022/03/15 13:17:07;;;;;;;20.20;7.13;;;;;;;;;;5099528;28;20039;-52
2022/03/15 13:19:35;;;;;;;47.90;12.63;;;;;;;;;;5099706;28;20055;-54
2022/03/15 13:22:01;;;;;;;21.10;7.10;;;;;;;;;;5099610;28;20550;-51
2022/03/15 13:24:35;;;;;;;17.23;6.60;;;;;;;;;;5098582;28;20537;-49
2022/03/15 13:27:01;;;;;;;12.18;7.07;;;;;;;;;;5099798;28;20184;-52
2022/03/15 13:29:29;;;;;;;16.80;5.93;;;;;;;;;;5099061;28;20058;-52
2022/03/15 13:31:54;;;;;;;23.40;5.97;;;;;;;;;;5099380;28;20062;-50
2022/03/15 13:34:27;;;;;;;27.50;6.50;;;;;;;;;;5097586;28;20047;-50
2022/03/15 13:36:53;;;;;;;25.45;6.85;;;;;;;;;;5099669;28;20066;-52
2022/03/15 13:39:23;;;;;;;21.92;7.20;;;;;;;;;;5097700;28;20044;-49
2022/03/15 13:41:50;;;;;;;23.42;7.10;;;;;;;;;;5099864;28;20563;-50
2022/03/15 13:44:16;;;;;;;28.08;6.85;;;;;;;;;;5100514;28;20066;-49
2022/03/15 13:46:42;;;;;;;26.38;7.93;;;;;;;;;;5098228;28;20138;-52
2022/03/15 13:49:21;;;;;;;26.50;6.50;;;;;;;;;;5097457;28;20485;-48
2022/03/15 13:51:47;;;;;;;20.05;6.63;;;;;;;;;;5099082;28;20644;-53
2022/03/15 13:54:13;;;;;;;7.25;4.78;;;;;;;;;;5099930;28;20264;-52
2022/03/15 13:56:49;;;;;;;16.17;6.38;;;;;;;;;;5099060;28;20414;-48
2022/03/15 13:59:16;;;;;;;28.45;9.20;;;;;;;;;;5098544;28;20127;-51
2022/03/15 14:01:49;;;;;;;20.45;5.60;;;;;;;;;;5097073;28;20047;-53
2022/03/15 14:04:15;;;;;;;20.60;7.90;;;;;;;;;;5099644;28;20051;-54
2022/03/15 14:06:43;;;;;;;29.80;8.30;;;;;;;;;;5098123;28;20062;-54
2022/03/15 14:09:09;;;;;;;24.75;7.60;;;;;;;;;;5099783;28;20044;-51
2022/03/15 14:11:44;;;;;;;34.03;9.32;;;;;;;;;;5097955;28;20063;-51
2022/03/15 14:14:10;;;;;;;11.38;4.40;;;;;;;;;;5098220;28;20118;-57
2022/03/15 14:16:49;;;;;;;37.20;8.80;;;;;;;;;;5099777;28;20099;-51
2022/03/15 14:19:19;;;;;;;20.98;5.55;;;;;;;;;;5096647;28;20093;-51
2022/03/15 14:21:48;;;;;;;10.07;6.35;;;;;;;;;;5100744;28;20047;-55
2022/03/15 14:24:21;;;;;;;21.88;4.85;;;;;;;;;;5096634;28;20039;-58
2022/03/15 14:26:55;;;;;;;28.42;7.22;;;;;;;;;;5094679;28;20059;-56